createdAt,value
2018-11-05T00:00:46.930Z,94.30
2018-11-05T00:03:16.099Z,93.90
2018-11-05T00:05:45.224Z,93.70
2018-11-05T00:08:14.341Z,93.80
2018-11-05T00:10:43.545Z,94.00
2018-11-05T00:13:12.684Z,94.00
2018-11-05T00:15:41.820Z,93.90
2018-11-05T00:18:10.958Z,94.00
2018-11-05T00:20:40.070Z,94.00
2018-11-05T00:23:09.205Z,94.00
2018-11-05T00:25:38.348Z,94.00
2018-11-05T00:28:07.475Z,93.80
2018-11-05T00:30:36.613Z,93.80
2018-11-05T00:33:05.865Z,93.80
2018-11-05T00:35:35.000Z,93.80
2018-11-05T00:38:04.149Z,93.70
2018-11-05T00:40:33.293Z,93.70
2018-11-05T00:43:02.420Z,93.70
2018-11-05T00:45:31.577Z,93.70
2018-11-05T00:48:00.709Z,93.70
2018-11-05T00:50:29.824Z,93.80
2018-11-05T00:52:58.946Z,93.90
2018-11-05T00:55:28.077Z,93.90
2018-11-05T00:57:57.231Z,93.80
2018-11-05T01:00:26.389Z,93.80
2018-11-05T01:02:55.536Z,93.70
2018-11-05T01:05:24.708Z,93.70
2018-11-05T01:07:53.852Z,93.60
2018-11-05T01:10:23.022Z,93.70
2018-11-05T01:12:52.173Z,93.60
2018-11-05T01:15:21.323Z,93.70
2018-11-05T01:17:50.481Z,93.60
2018-11-05T01:20:19.656Z,93.50
2018-11-05T01:22:54.469Z,93.50
2018-11-05T01:25:23.592Z,93.50
2018-11-05T01:27:52.734Z,93.40
2018-11-05T01:30:22.029Z,93.30
2018-11-05T01:32:51.149Z,93.30
2018-11-05T01:35:20.509Z,93.30
2018-11-05T01:37:49.665Z,93.30
2018-11-05T01:40:18.917Z,93.30
2018-11-05T01:42:48.114Z,93.20
2018-11-05T01:45:17.265Z,93.10
2018-11-05T01:47:46.406Z,93.10
2018-11-05T01:50:16.613Z,93.10
2018-11-05T01:52:45.853Z,93.00
2018-11-05T01:55:14.993Z,93.00
2018-11-05T01:57:44.201Z,92.90
2018-11-05T02:00:16.402Z,92.80
2018-11-05T02:02:46.416Z,92.90
2018-11-05T02:05:15.577Z,92.90
2018-11-05T02:07:45.809Z,92.80
2018-11-05T02:10:16.249Z,92.90
2018-11-05T02:12:45.344Z,92.90
2018-11-05T02:15:14.724Z,92.80
2018-11-05T02:17:44.968Z,92.80
2018-11-05T02:20:15.100Z,92.90
2018-11-05T02:22:44.294Z,92.80
2018-11-05T02:25:14.169Z,92.70
2018-11-05T02:27:43.685Z,92.70
2018-11-05T02:30:17.208Z,92.80
2018-11-05T02:32:46.796Z,92.80
2018-11-05T02:35:16.937Z,92.80
2018-11-05T02:37:47.045Z,92.80
2018-11-05T02:40:17.585Z,92.70
2018-11-05T02:42:47.483Z,92.70
2018-11-05T02:45:17.806Z,93.30
2018-11-05T02:47:46.989Z,93.30
2018-11-05T02:50:16.589Z,93.30
2018-11-05T02:52:46.555Z,93.40
2018-11-05T02:55:15.760Z,93.30
2018-11-05T02:57:44.913Z,93.40
2018-11-05T03:00:16.765Z,93.20
2018-11-05T03:02:45.940Z,93.20
2018-11-05T03:05:16.198Z,93.10
2018-11-05T03:07:46.196Z,93.00
2018-11-05T03:10:15.516Z,92.80
2018-11-05T03:12:45.625Z,92.80
2018-11-05T03:15:16.052Z,92.80
2018-11-05T03:17:45.244Z,93.10
2018-11-05T03:20:15.245Z,93.20
2018-11-05T03:22:44.873Z,93.80
2018-11-05T03:25:14.038Z,93.60
2018-11-05T03:27:43.226Z,93.70
2018-11-05T03:30:15.701Z,93.80
2018-11-05T03:32:44.836Z,93.80
2018-11-05T03:35:14.425Z,93.90
2018-11-05T03:37:44.555Z,93.90
2018-11-05T03:40:14.144Z,94.00
2018-11-05T03:42:43.583Z,94.00
2018-11-05T03:45:14.080Z,94.00
2018-11-05T03:47:43.491Z,94.20
2018-11-05T03:50:15.582Z,94.20
2018-11-05T03:52:45.581Z,94.10
2018-11-05T03:55:15.704Z,94.10
2018-11-05T03:57:44.874Z,94.00
2018-11-05T04:00:15.303Z,94.10
2018-11-05T04:02:44.484Z,94.20
2018-11-05T04:05:13.613Z,94.60
2018-11-05T04:07:42.781Z,94.10
2018-11-05T04:10:13.037Z,93.90
2018-11-05T04:12:42.220Z,94.00
2018-11-05T04:15:11.624Z,93.90
2018-11-05T04:17:40.780Z,94.00
2018-11-05T04:20:12.405Z,93.90
2018-11-05T04:22:42.238Z,93.90
2018-11-05T04:25:11.447Z,93.90
2018-11-05T04:27:40.706Z,93.90
2018-11-05T04:30:12.863Z,93.80
2018-11-05T04:32:42.254Z,93.60
2018-11-05T04:35:11.855Z,93.60
2018-11-05T04:37:41.046Z,93.50
2018-11-05T04:40:11.269Z,93.70
2018-11-05T04:42:40.600Z,93.70
2018-11-05T04:45:11.308Z,93.70
2018-11-05T04:47:40.752Z,93.40
2018-11-05T04:50:11.453Z,93.40
2018-11-05T04:52:41.301Z,93.50
2018-11-05T04:55:10.429Z,93.40
2018-11-05T04:57:39.884Z,93.50
2018-11-05T05:00:13.057Z,93.50
2018-11-05T05:02:42.669Z,93.30
2018-11-05T05:05:12.893Z,93.30
2018-11-05T05:07:42.048Z,93.10
2018-11-05T05:10:11.391Z,93.20
2018-11-05T05:12:41.637Z,92.80
2018-11-05T05:15:11.336Z,93.00
2018-11-05T05:17:40.916Z,92.90
2018-11-05T05:20:12.901Z,92.90
2018-11-05T05:22:42.450Z,92.90
2018-11-05T05:25:11.481Z,92.80
2018-11-05T05:27:40.757Z,92.80
2018-11-05T05:30:14.533Z,92.70
2018-11-05T05:32:44.183Z,92.60
2018-11-05T05:35:13.309Z,92.50
2018-11-05T05:37:43.139Z,92.50
2018-11-05T05:40:12.405Z,92.50
2018-11-05T05:42:41.700Z,92.40
2018-11-05T05:45:12.254Z,92.30
2018-11-05T05:47:42.041Z,92.20
2018-11-05T05:50:14.997Z,92.20
2018-11-05T05:52:45.361Z,92.10
2018-11-05T05:55:14.661Z,92.00
2018-11-05T05:57:44.061Z,91.90
2018-11-05T06:00:14.698Z,91.90
2018-11-05T06:02:43.839Z,92.00
2018-11-05T06:05:13.922Z,92.30
2018-11-05T06:07:43.431Z,92.00
2018-11-05T06:10:13.949Z,92.10
2018-11-05T06:12:43.121Z,92.10
2018-11-05T06:15:14.257Z,92.20
2018-11-05T06:17:43.389Z,92.10
2018-11-05T06:20:15.416Z,92.10
2018-11-05T06:22:45.272Z,92.10
2018-11-05T06:25:14.649Z,92.00
2018-11-05T06:27:43.838Z,92.10
2018-11-05T06:30:16.652Z,92.10
2018-11-05T06:32:47.081Z,92.00
2018-11-05T06:35:16.342Z,92.20
2018-11-05T06:37:45.481Z,92.20
2018-11-05T06:40:16.821Z,92.10
2018-11-05T06:42:46.337Z,92.20
2018-11-05T06:45:16.661Z,92.60
2018-11-05T06:47:46.453Z,92.00
2018-11-05T06:50:18.323Z,92.10
2018-11-05T06:52:47.562Z,92.10
2018-11-05T06:55:16.957Z,92.20
2018-11-05T06:57:46.218Z,92.30
2018-11-05T07:00:17.662Z,92.30
2018-11-05T07:02:46.905Z,92.40
2018-11-05T07:05:16.361Z,92.40
2018-11-05T07:07:45.563Z,92.40
2018-11-05T07:10:15.584Z,92.30
2018-11-05T07:12:45.185Z,92.30
2018-11-05T07:15:15.454Z,92.10
2018-11-05T07:17:45.613Z,92.20
2018-11-05T07:20:16.828Z,92.20
2018-11-05T07:22:46.778Z,92.20
2018-11-05T07:25:17.005Z,91.80
2018-11-05T07:27:46.263Z,92.30
2018-11-05T07:30:18.219Z,92.10
2018-11-05T07:32:48.105Z,92.30
2018-11-05T07:35:17.249Z,92.40
2018-11-05T07:37:46.417Z,92.60
2018-11-05T07:40:16.709Z,92.70
2018-11-05T07:42:45.982Z,92.70
2018-11-05T07:45:19.499Z,92.80
2018-11-05T07:47:48.921Z,92.90
2018-11-05T07:50:19.031Z,92.70
2018-11-05T07:52:48.221Z,93.20
2018-11-05T07:55:18.489Z,93.40
2018-11-05T07:57:48.594Z,93.20
2018-11-05T08:00:23.030Z,93.10
2018-11-05T08:02:53.770Z,93.20
2018-11-05T08:05:23.582Z,93.20
2018-11-05T08:07:52.842Z,92.20
2018-11-05T08:10:22.037Z,92.10
2018-11-05T08:12:51.181Z,91.80
2018-11-05T08:15:21.674Z,91.60
2018-11-05T08:17:51.660Z,91.30
2018-11-05T08:20:20.828Z,91.30
2018-11-05T08:22:49.965Z,91.10
2018-11-05T08:25:19.148Z,91.20
2018-11-05T08:27:48.323Z,91.20
2018-11-05T08:30:21.253Z,91.50
2018-11-05T08:32:50.425Z,91.80
2018-11-05T08:35:19.605Z,91.60
2018-11-05T08:37:49.048Z,91.70
2018-11-05T08:40:21.085Z,91.50
2018-11-05T08:42:51.025Z,91.70
2018-11-05T08:45:22.587Z,91.70
2018-11-05T08:47:51.754Z,91.70
2018-11-05T08:50:22.236Z,91.60
2018-11-05T08:52:51.161Z,91.60
2018-11-05T08:55:21.639Z,92.10
2018-11-05T08:57:50.864Z,91.70
2018-11-05T09:00:25.449Z,91.50
2018-11-05T09:02:55.353Z,91.40
2018-11-05T09:05:24.769Z,91.40
2018-11-05T09:07:54.682Z,91.30
2018-11-05T09:10:24.087Z,91.60
2018-11-05T09:12:52.997Z,91.70
2018-11-05T09:15:22.910Z,91.50
2018-11-05T09:17:52.413Z,91.20
2018-11-05T09:20:21.567Z,90.50
2018-11-05T09:22:51.389Z,90.10
2018-11-05T09:25:20.592Z,89.00
2018-11-05T09:27:50.103Z,87.80
2018-11-05T09:30:20.689Z,85.00
2018-11-05T09:32:49.841Z,84.60
2018-11-05T09:35:18.993Z,82.40
2018-11-05T09:37:48.132Z,81.60
2018-11-05T09:40:19.994Z,79.90
2018-11-05T09:42:49.491Z,76.90
2018-11-05T09:45:20.709Z,74.60
2018-11-05T09:47:49.809Z,70.80
2018-11-05T09:50:19.281Z,66.00
2018-11-05T09:52:47.768Z,61.70
2018-11-05T09:55:16.764Z,59.40
2018-11-05T09:57:45.224Z,59.10
2018-11-05T10:00:15.649Z,57.50
2018-11-05T10:02:49.765Z,56.50
2018-11-05T10:05:18.612Z,55.10
2018-11-05T10:07:46.956Z,54.70
2018-11-05T10:10:16.192Z,55.10
2018-11-05T10:12:44.940Z,55.10
2018-11-05T10:15:14.413Z,55.10
2018-11-05T10:17:42.902Z,55.60
2018-11-05T10:20:14.052Z,55.40
2018-11-05T10:22:43.034Z,55.40
2018-11-05T10:25:12.246Z,56.20
2018-11-05T10:27:40.688Z,57.90
2018-11-05T10:30:11.159Z,58.60
2018-11-05T10:32:40.191Z,58.90
2018-11-05T10:35:08.655Z,59.10
2018-11-05T10:37:37.307Z,58.40
2018-11-05T10:40:08.607Z,59.10
2018-11-05T10:42:37.057Z,58.50
2018-11-05T10:45:06.848Z,58.80
2018-11-05T10:47:35.517Z,58.60
2018-11-05T10:50:04.024Z,58.70
2018-11-05T10:52:32.502Z,58.50
2018-11-05T10:55:01.149Z,58.90
2018-11-05T10:57:29.792Z,58.30
2018-11-05T10:59:58.340Z,59.10
2018-11-05T11:02:32.172Z,58.90
2018-11-05T11:05:00.736Z,58.50
2018-11-05T11:07:29.933Z,58.20
2018-11-05T11:09:59.097Z,58.30
2018-11-05T11:12:28.286Z,58.10
2018-11-05T11:14:57.548Z,57.70
2018-11-05T11:17:26.703Z,57.30
2018-11-05T11:19:55.903Z,57.40
2018-11-05T11:22:25.116Z,56.40
2018-11-05T11:24:54.308Z,56.80
2018-11-05T11:27:23.520Z,57.20
2018-11-05T11:29:52.698Z,56.60
2018-11-05T11:32:22.202Z,56.30
2018-11-05T11:34:51.406Z,57.30
2018-11-05T11:37:20.719Z,57.40
2018-11-05T11:39:49.782Z,58.20
2018-11-05T11:42:19.035Z,57.90
2018-11-05T11:44:48.348Z,58.20
2018-11-05T11:47:17.456Z,58.50
2018-11-05T11:49:46.672Z,58.10
2018-11-05T11:52:15.866Z,58.30
2018-11-05T11:54:44.346Z,59.00
2018-11-05T11:57:13.525Z,60.10
2018-11-05T11:59:42.357Z,60.90
2018-11-05T12:02:16.906Z,61.70
2018-11-05T12:04:45.478Z,62.90
2018-11-05T12:07:14.165Z,64.00
2018-11-05T12:09:42.669Z,64.00
2018-11-05T12:12:12.509Z,64.50
2018-11-05T12:14:41.864Z,66.00
2018-11-05T12:17:10.872Z,65.30
2018-11-05T12:19:39.985Z,65.00
2018-11-05T12:22:09.158Z,64.50
2018-11-05T12:24:38.489Z,64.60
2018-11-05T12:27:07.473Z,64.70
2018-11-05T12:29:36.665Z,65.50
2018-11-05T12:32:06.061Z,66.50
2018-11-05T12:34:35.309Z,67.60
2018-11-05T12:37:04.474Z,66.40
2018-11-05T12:39:33.643Z,65.60
2018-11-05T12:42:02.796Z,64.50
2018-11-05T12:44:32.015Z,65.40
2018-11-05T12:47:01.104Z,63.90
2018-11-05T12:49:30.317Z,63.80
2018-11-05T12:51:59.477Z,63.40
2018-11-05T12:54:28.748Z,63.00
2018-11-05T12:56:57.945Z,62.70
2018-11-05T12:59:27.165Z,60.90
2018-11-05T13:02:00.065Z,61.50
2018-11-05T13:04:29.252Z,60.00
2018-11-05T13:06:58.423Z,62.80
2018-11-05T13:09:27.633Z,62.40
2018-11-05T13:11:56.802Z,61.00
2018-11-05T13:14:26.013Z,61.40
2018-11-05T13:16:55.177Z,61.90
2018-11-05T13:19:24.373Z,61.80
2018-11-05T13:21:53.492Z,61.30
2018-11-05T13:24:22.645Z,60.70
2018-11-05T13:26:51.818Z,59.90
2018-11-05T13:29:21.260Z,60.40
2018-11-05T13:31:50.394Z,60.40
2018-11-05T13:34:19.605Z,59.50
2018-11-05T13:36:48.911Z,60.00
2018-11-05T13:39:17.944Z,62.20
2018-11-05T13:41:47.153Z,62.30
2018-11-05T13:44:16.277Z,63.20
2018-11-05T13:46:45.757Z,64.30
2018-11-05T13:49:14.738Z,64.00
2018-11-05T13:51:43.820Z,63.60
2018-11-05T13:54:12.969Z,64.40
2018-11-05T13:56:42.118Z,63.10
2018-11-05T13:59:11.313Z,63.20
2018-11-05T14:01:40.499Z,62.80
2018-11-05T14:04:09.645Z,63.30
2018-11-05T14:06:38.806Z,62.60
2018-11-05T14:09:09.189Z,63.20
2018-11-05T14:11:38.365Z,63.90
2018-11-05T14:14:07.556Z,63.80
2018-11-05T14:16:36.909Z,63.00
2018-11-05T14:19:06.262Z,62.40
2018-11-05T14:21:35.433Z,63.70
2018-11-05T14:24:04.822Z,63.40
2018-11-05T14:26:34.015Z,64.50
2018-11-05T14:29:03.481Z,64.80
2018-11-05T14:31:32.690Z,65.70
2018-11-05T14:34:01.923Z,66.10
2018-11-05T14:36:31.052Z,66.70
2018-11-05T14:39:00.168Z,67.30
2018-11-05T14:41:29.305Z,68.10
2018-11-05T14:43:58.518Z,68.80
2018-11-05T14:46:27.683Z,69.80
2018-11-05T14:48:56.813Z,70.50
2018-11-05T14:51:25.984Z,71.40
2018-11-05T14:53:55.194Z,71.90
2018-11-05T14:56:24.395Z,72.60
2018-11-05T14:58:53.533Z,73.40
2018-11-05T15:01:22.696Z,73.30
2018-11-05T15:03:52.065Z,74.00
2018-11-05T15:06:21.202Z,75.10
2018-11-05T15:08:50.324Z,75.70
2018-11-05T15:11:19.538Z,76.10
2018-11-05T15:13:48.689Z,76.60
2018-11-05T15:16:17.862Z,76.80
2018-11-05T15:18:47.397Z,77.30
2018-11-05T15:21:16.265Z,78.00
2018-11-05T15:23:45.433Z,78.40
2018-11-05T15:26:15.091Z,79.20
2018-11-05T15:28:44.189Z,80.50
2018-11-05T15:31:13.354Z,80.10
2018-11-05T15:33:43.037Z,80.50
2018-11-05T15:36:12.361Z,80.90
2018-11-05T15:38:41.567Z,81.20
2018-11-05T15:41:10.752Z,81.60
2018-11-05T15:43:39.947Z,82.00
2018-11-05T15:46:09.354Z,82.20
2018-11-05T15:48:38.538Z,82.40
2018-11-05T15:51:07.803Z,82.40
2018-11-05T15:53:37.253Z,82.20
2018-11-05T15:56:06.029Z,82.20
2018-11-05T15:58:35.201Z,82.20
2018-11-05T16:01:04.359Z,83.00
2018-11-05T16:03:33.632Z,82.20
2018-11-05T16:06:02.874Z,82.00
2018-11-05T16:08:32.086Z,82.50
2018-11-05T16:11:01.278Z,82.50
2018-11-05T16:13:30.499Z,82.90
2018-11-05T16:15:59.731Z,82.80
2018-11-05T16:18:29.239Z,83.00
2018-11-05T16:20:58.505Z,83.40
2018-11-05T16:23:27.750Z,83.50
2018-11-05T16:25:57.005Z,83.40
2018-11-05T16:28:26.147Z,83.20
2018-11-05T16:30:55.334Z,82.60
2018-11-05T16:33:24.542Z,79.40
2018-11-05T16:35:53.713Z,77.40
2018-11-05T16:38:23.200Z,75.50
2018-11-05T16:40:52.353Z,76.00
2018-11-05T16:43:21.545Z,75.00
2018-11-05T16:45:50.781Z,73.40
2018-11-05T16:48:19.938Z,73.00
2018-11-05T16:50:49.389Z,72.00
2018-11-05T16:53:18.747Z,71.90
2018-11-05T16:55:47.917Z,72.10
2018-11-05T16:58:17.089Z,72.60
2018-11-05T17:00:46.361Z,71.90
2018-11-05T17:03:15.452Z,72.20
2018-11-05T17:05:44.531Z,70.30
2018-11-05T17:08:13.701Z,69.80
2018-11-05T17:10:42.882Z,70.00
2018-11-05T17:13:12.123Z,69.90
2018-11-05T17:15:41.322Z,71.00
2018-11-05T17:18:10.469Z,70.40
2018-11-05T17:20:39.618Z,71.00
2018-11-05T17:23:08.829Z,71.20
2018-11-05T17:25:38.022Z,71.10
2018-11-05T17:28:07.178Z,69.30
2018-11-05T17:30:36.421Z,69.00
2018-11-05T17:33:06.171Z,68.30
2018-11-05T17:35:35.329Z,68.30
2018-11-05T17:38:04.525Z,65.30
2018-11-05T17:40:33.810Z,63.60
2018-11-05T17:43:02.976Z,63.80
2018-11-05T17:45:32.189Z,62.60
2018-11-05T17:48:00.728Z,61.00
2018-11-05T17:50:29.890Z,59.90
2018-11-05T17:52:59.041Z,59.60
2018-11-05T17:55:28.242Z,59.10
2018-11-05T17:57:57.442Z,58.70
2018-11-05T18:00:26.659Z,58.30
2018-11-05T18:02:55.841Z,58.70
2018-11-05T18:05:25.094Z,57.80
2018-11-05T18:07:54.257Z,58.10
2018-11-05T18:10:23.442Z,58.40
2018-11-05T18:12:52.641Z,58.20
2018-11-05T18:15:21.817Z,58.60
2018-11-05T18:17:50.989Z,58.50
2018-11-05T18:20:20.133Z,58.20
2018-11-05T18:22:49.331Z,58.10
2018-11-05T18:25:19.729Z,57.80
2018-11-05T18:27:48.891Z,58.40
2018-11-05T18:30:18.761Z,58.80
2018-11-05T18:32:48.265Z,58.70
2018-11-05T18:35:17.972Z,58.40
2018-11-05T18:37:49.623Z,58.60
2018-11-05T18:40:18.789Z,58.80
2018-11-05T18:42:47.972Z,59.20
2018-11-05T18:45:17.209Z,59.30
2018-11-05T18:47:46.428Z,59.70
2018-11-05T18:50:16.370Z,60.90
2018-11-05T18:52:45.754Z,60.30
2018-11-05T18:55:16.252Z,60.50
2018-11-05T18:57:45.501Z,61.60
2018-11-05T19:00:22.671Z,59.80
2018-11-05T19:02:52.760Z,60.30
2018-11-05T19:05:22.789Z,60.70
2018-11-05T19:07:51.990Z,60.90
2018-11-05T19:10:21.176Z,60.70
2018-11-05T19:12:51.196Z,60.00
2018-11-05T19:15:20.682Z,60.20
2018-11-05T19:17:50.523Z,60.70
2018-11-05T19:20:19.978Z,59.80
2018-11-05T19:22:49.251Z,59.70
2018-11-05T19:25:18.600Z,59.70
2018-11-05T19:27:47.800Z,59.60
2018-11-05T19:30:19.935Z,60.10
2018-11-05T19:32:49.090Z,61.00
2018-11-05T19:35:18.307Z,60.50
2018-11-05T19:37:47.550Z,61.10
2018-11-05T19:40:17.625Z,62.70
2018-11-05T19:42:47.609Z,62.80
2018-11-05T19:45:18.649Z,64.00
2018-11-05T19:47:47.798Z,63.00
2018-11-05T19:50:18.300Z,64.00
2018-11-05T19:52:48.832Z,64.40
2018-11-05T19:55:18.474Z,64.80
2018-11-05T19:57:48.487Z,65.20
2018-11-05T20:00:19.436Z,65.10
2018-11-05T20:02:49.248Z,65.20
2018-11-05T20:05:18.741Z,66.70
2018-11-05T20:07:48.237Z,66.00
2018-11-05T20:10:17.429Z,66.40
2018-11-05T20:12:47.002Z,66.20
2018-11-05T20:15:16.433Z,64.00
2018-11-05T20:17:46.433Z,64.30
2018-11-05T20:20:16.837Z,61.40
2018-11-05T20:22:46.179Z,61.60
2018-11-05T20:25:15.306Z,60.80
2018-11-05T20:27:44.713Z,60.60
2018-11-05T20:30:17.790Z,60.40
2018-11-05T20:32:48.458Z,60.00
2018-11-05T20:35:17.181Z,59.90
2018-11-05T20:37:46.413Z,59.90
2018-11-05T20:40:17.076Z,60.00
2018-11-05T20:42:47.311Z,59.70
2018-11-05T20:45:17.259Z,60.00
2018-11-05T20:47:46.446Z,60.00
2018-11-05T20:50:16.310Z,60.10
2018-11-05T20:52:45.485Z,60.00
2018-11-05T20:55:15.857Z,60.10
2018-11-05T20:57:45.360Z,59.50
2018-11-05T21:00:15.857Z,59.50
2018-11-05T21:02:45.050Z,59.20
2018-11-05T21:05:14.229Z,59.60
2018-11-05T21:07:43.973Z,59.10
2018-11-05T21:10:19.836Z,58.80
2018-11-05T21:12:48.985Z,58.90
2018-11-05T21:15:20.614Z,58.60
2018-11-05T21:17:51.183Z,58.60
2018-11-05T21:20:20.337Z,58.20
2018-11-05T21:22:50.297Z,58.20
2018-11-05T21:25:19.314Z,57.90
2018-11-05T21:27:48.500Z,58.10
2018-11-05T21:30:19.111Z,58.20
2018-11-05T21:32:48.231Z,57.70
2018-11-05T21:35:18.678Z,57.80
2018-11-05T21:37:47.832Z,57.30
2018-11-05T21:40:17.733Z,57.20
2018-11-05T21:42:46.877Z,57.60
2018-11-05T21:45:17.009Z,57.10
2018-11-05T21:47:46.563Z,57.50
2018-11-05T21:50:16.975Z,57.30
2018-11-05T21:52:46.425Z,57.40
2018-11-05T21:55:15.868Z,57.40
2018-11-05T21:57:46.349Z,57.90
2018-11-05T22:00:22.117Z,57.60
2018-11-05T22:03:10.417Z,57.90
2018-11-05T22:05:39.557Z,58.20
2018-11-05T22:08:08.690Z,58.30
2018-11-05T22:10:37.849Z,58.20
2018-11-05T22:13:07.027Z,58.50
2018-11-05T22:15:40.848Z,58.90
2018-11-05T22:18:10.030Z,59.10
2018-11-05T22:20:39.229Z,59.00
2018-11-05T22:23:08.603Z,58.80
2018-11-05T22:25:37.767Z,58.90
2018-11-05T22:28:07.141Z,58.70
2018-11-05T22:30:36.309Z,58.90
2018-11-05T22:33:05.956Z,59.40
2018-11-05T22:35:35.316Z,59.20
2018-11-05T22:38:04.492Z,59.20
2018-11-05T22:40:33.639Z,59.30
2018-11-05T22:43:02.740Z,60.10
2018-11-05T22:45:31.912Z,60.00
2018-11-05T22:48:01.073Z,59.90
2018-11-05T22:50:30.379Z,60.10
2018-11-05T22:52:59.436Z,60.80
2018-11-05T22:55:28.616Z,60.60
2018-11-05T22:57:57.820Z,60.70
2018-11-05T23:00:32.332Z,60.00
2018-11-05T23:03:06.781Z,60.70
2018-11-05T23:05:35.941Z,60.80
2018-11-05T23:08:05.094Z,61.00
2018-11-05T23:10:34.244Z,60.60
2018-11-05T23:13:03.437Z,60.90
2018-11-05T23:15:32.925Z,60.70
2018-11-05T23:18:02.081Z,60.50
2018-11-05T23:20:31.245Z,60.10
2018-11-05T23:23:00.472Z,60.30
2018-11-05T23:25:29.639Z,60.50
2018-11-05T23:27:58.821Z,60.80
2018-11-05T23:30:27.988Z,61.20
2018-11-05T23:32:57.155Z,61.20
2018-11-05T23:35:26.302Z,61.20
2018-11-05T23:37:55.461Z,61.20
2018-11-05T23:40:24.905Z,61.10
2018-11-05T23:42:54.054Z,61.10
2018-11-05T23:45:23.206Z,62.60
2018-11-05T23:47:52.371Z,62.40
2018-11-05T23:50:21.515Z,63.10
2018-11-05T23:52:51.029Z,62.30
2018-11-05T23:55:20.176Z,62.40
2018-11-05T23:57:49.313Z,62.40
